Dewey, Wisconsin
Current Conditions -  °F | °C
As of 1:55 PM on Thursday 23 Oct 2014 (Local Time) from KSTE Reporting Station
Light Rain Light Rain  
Wind Chill: 39°   Ceiling: 400
Heat Index: 43°   Visibility: 3mi
Dew Point: 42°   Wind: 7mph
Humidity: 97%   Direction: 190°S
Pressure: 30.05"   Gusts: NA
Location:  44.5531°N, 89.5186°W
Report Text: KSTE 231855Z AUTO 19006KT 3SM -RA OVC004 06/06 A3005 RMK AO2 T00620058
Loading
Personal Weather Stations






























Interactive Weather Map
Tropical Storm Tracking
New forecast layout! Learn more

10-Day Weather Forecast

Advertisements
Track Severe Weather on mobile